sensor_id;sensor_type;location;lat;lon;timestamp;temperature;humidity
4453;DHT22;2239;48.152;11.584;2023-05-10T11:12:12;18.50;96.70
4453;DHT22;2239;48.152;11.584;2023-05-10T11:14:40;18.40;97.00
4453;DHT22;2239;48.152;11.584;2023-05-10T11:17:28;18.30;96.40
4453;DHT22;2239;48.152;11.584;2023-05-10T11:20:09;18.20;96.60
4453;DHT22;2239;48.152;11.584;2023-05-10T11:22:55;17.90;96.60
4453;DHT22;2239;48.152;11.584;2023-05-10T11:25:26;17.90;97.10
4453;DHT22;2239;48.152;11.584;2023-05-10T11:28:02;17.80;97.10
4453;DHT22;2239;48.152;11.584;2023-05-10T11:30:31;17.70;96.70
4453;DHT22;2239;48.152;11.584;2023-05-10T11:32:56;17.60;97.10
4453;DHT22;2239;48.152;11.584;2023-05-10T11:35:28;17.50;97.40
4453;DHT22;2239;48.152;11.584;2023-05-10T11:37:53;17.40;98.20
4453;DHT22;2239;48.152;11.584;2023-05-10T11:40:21;17.30;99.10
4453;DHT22;2239;48.152;11.584;2023-05-10T11:42:48;17.20;99.70
4453;DHT22;2239;48.152;11.584;2023-05-10T11:45:14;17.00;99.90
4453;DHT22;2239;48.152;11.584;2023-05-10T11:47:40;16.80;99.90
4453;DHT22;2239;48.152;11.584;2023-05-10T11:50:08;16.50;99.90
4453;DHT22;2239;48.152;11.584;2023-05-10T11:52:36;16.40;99.90
4453;DHT22;2239;48.152;11.584;2023-05-10T11:55:05;16.30;99.90
4453;DHT22;2239;48.152;11.584;2023-05-10T11:57:31;16.20;99.90
4453;DHT22;2239;48.152;11.584;2023-05-10T11:59:57;16.20;99.90
4453;DHT22;2239;48.152;11.584;2023-05-10T12:02:23;16.10;99.90
4453;DHT22;2239;48.152;11.584;2023-05-10T12:04:49;16.10;99.90
4453;DHT22;2239;48.152;11.584;2023-05-10T12:07:16;16.00;99.90
4453;DHT22;2239;48.152;11.584;2023-05-10T12:09:44;15.90;99.90
4453;DHT22;2239;48.152;11.584;2023-05-10T12:12:15;15.80;99.90
4453;DHT22;2239;48.152;11.584;2023-05-10T12:14:41;15.70;99.90
4453;DHT22;2239;48.152;11.584;2023-05-10T12:17:11;15.50;99.90
4453;DHT22;2239;48.152;11.584;2023-05-10T12:19:38;15.40;99.90
4453;DHT22;2239;48.152;11.584;2023-05-10T12:22:07;15.40;99.90
4453;DHT22;2239;48.152;11.584;2023-05-10T12:24:36;15.30;99.90
4453;DHT22;2239;48.152;11.584;2023-05-10T12:27:08;15.20;99.90
4453;DHT22;2239;48.152;11.584;2023-05-10T12:29:33;15.10;99.90
4453;DHT22;2239;48.152;11.584;2023-05-10T12:31:59;15.10;99.90
4453;DHT22;2239;48.152;11.584;2023-05-10T12:34:32;15.00;99.90
4453;DHT22;2239;48.152;11.584;2023-05-10T12:36:58;15.00;99.90
4453;DHT22;2239;48.152;11.584;2023-05-10T12:39:24;15.00;99.90
4453;DHT22;2239;48.152;11.584;2023-05-10T12:41:51;15.00;99.90
4453;DHT22;2239;48.152;11.584;2023-05-10T12:44:16;15.00;99.90
4453;DHT22;2239;48.152;11.584;2023-05-10T12:46:42;15.00;99.90
4453;DHT22;2239;48.152;11.584;2023-05-10T12:49:08;15.00;99.90
4453;DHT22;2239;48.152;11.584;2023-05-10T12:51:34;15.10;99.90
4453;DHT22;2239;48.152;11.584;2023-05-10T12:53:59;15.00;99.90
4453;DHT22;2239;48.152;11.584;2023-05-10T12:56:25;15.10;99.90
4453;DHT22;2239;48.152;11.584;2023-05-10T12:58:51;15.10;99.90
4453;DHT22;2239;48.152;11.584;2023-05-10T13:01:17;15.10;99.90
4453;DHT22;2239;48.152;11.584;2023-05-10T13:03:42;15.10;99.90
4453;DHT22;2239;48.152;11.584;2023-05-10T13:06:11;15.00;99.90
4453;DHT22;2239;48.152;11.584;2023-05-10T13:08:38;15.00;99.90
4453;DHT22;2239;48.152;11.584;2023-05-10T13:11:05;15.10;99.90
4453;DHT22;2239;48.152;11.584;2023-05-10T13:13:31;15.10;99.90
4453;DHT22;2239;48.152;11.584;2023-05-10T13:15:56;15.10;99.90
4453;DHT22;2239;48.152;11.584;2023-05-10T13:18:22;15.20;99.90
4453;DHT22;2239;48.152;11.584;2023-05-10T13:20:47;15.20;99.90
4453;DHT22;2239;48.152;11.584;2023-05-10T13:23:14;15.20;99.90
4453;DHT22;2239;48.152;11.584;2023-05-10T13:25:40;15.20;99.90
4453;DHT22;2239;48.152;11.584;2023-05-10T13:28:05;15.30;99.90
4453;DHT22;2239;48.152;11.584;2023-05-10T13:30:31;15.30;99.90
4453;DHT22;2239;48.152;11.584;2023-05-10T13:32:57;15.30;99.90
4453;DHT22;2239;48.152;11.584;2023-05-10T13:35:22;15.40;99.90
4453;DHT22;2239;48.152;11.584;2023-05-10T13:37:48;15.50;99.90
4453;DHT22;2239;48.152;11.584;2023-05-10T13:40:16;15.40;99.90
4453;DHT22;2239;48.152;11.584;2023-05-10T13:42:42;15.30;99.90
4453;DHT22;2239;48.152;11.584;2023-05-10T13:45:08;15.00;99.90
4453;DHT22;2239;48.152;11.584;2023-05-10T13:47:33;14.90;99.90
4453;DHT22;2239;48.152;11.584;2023-05-10T13:49:59;14.70;99.90
4453;DHT22;2239;48.152;11.584;2023-05-10T13:52:25;14.70;99.90
4453;DHT22;2239;48.152;11.584;2023-05-10T13:54:51;14.60;99.90
4453;DHT22;2239;48.152;11.584;2023-05-10T13:57:20;14.60;99.90
4453;DHT22;2239;48.152;11.584;2023-05-10T13:59:45;14.50;99.90
4453;DHT22;2239;48.152;11.584;2023-05-10T14:02:11;14.40;99.90
4453;DHT22;2239;48.152;11.584;2023-05-10T14:04:38;14.40;99.90
4453;DHT22;2239;48.152;11.584;2023-05-10T14:07:04;14.50;99.90
4453;DHT22;2239;48.152;11.584;2023-05-10T14:09:30;14.60;99.90
4453;DHT22;2239;48.152;11.584;2023-05-10T14:11:55;14.50;99.90
4453;DHT22;2239;48.152;11.584;2023-05-10T14:14:21;14.50;99.90
4453;DHT22;2239;48.152;11.584;2023-05-10T14:16:47;14.40;99.90
4453;DHT22;2239;48.152;11.584;2023-05-10T14:19:12;14.30;99.90
4453;DHT22;2239;48.152;11.584;2023-05-10T14:21:38;14.20;99.90
4453;DHT22;2239;48.152;11.584;2023-05-10T14:24:04;14.20;99.90
4453;DHT22;2239;48.152;11.584;2023-05-10T14:26:29;14.30;99.90
4453;DHT22;2239;48.152;11.584;2023-05-10T14:28:55;14.20;99.90
4453;DHT22;2239;48.152;11.584;2023-05-10T14:31:21;14.20;99.90
4453;DHT22;2239;48.152;11.584;2023-05-10T14:33:47;14.30;99.90
4453;DHT22;2239;48.152;11.584;2023-05-10T14:36:13;14.30;99.90
4453;DHT22;2239;48.152;11.584;2023-05-10T14:38:39;14.40;99.90
4453;DHT22;2239;48.152;11.584;2023-05-10T14:41:05;14.30;99.90
4453;DHT22;2239;48.152;11.584;2023-05-10T14:43:30;14.30;99.90
4453;DHT22;2239;48.152;11.584;2023-05-10T14:45:56;14.40;99.90
4453;DHT22;2239;48.152;11.584;2023-05-10T14:48:21;14.30;99.90
4453;DHT22;2239;48.152;11.584;2023-05-10T14:50:47;14.30;99.90
4453;DHT22;2239;48.152;11.584;2023-05-10T14:53:13;14.20;99.90
4453;DHT22;2239;48.152;11.584;2023-05-10T14:55:38;14.30;99.90
4453;DHT22;2239;48.152;11.584;2023-05-10T14:58:04;14.20;99.90
4453;DHT22;2239;48.152;11.584;2023-05-10T15:00:30;14.20;99.90
4453;DHT22;2239;48.152;11.584;2023-05-10T15:02:55;14.20;99.90
4453;DHT22;2239;48.152;11.584;2023-05-10T15:05:21;14.10;99.90
4453;DHT22;2239;48.152;11.584;2023-05-10T15:07:47;14.10;99.90
4453;DHT22;2239;48.152;11.584;2023-05-10T15:10:14;14.10;99.90
4453;DHT22;2239;48.152;11.584;2023-05-10T15:12:42;14.10;99.90
4453;DHT22;2239;48.152;11.584;2023-05-10T15:15:08;14.10;99.90
4453;DHT22;2239;48.152;11.584;2023-05-10T15:17:33;14.00;99.90
4453;DHT22;2239;48.152;11.584;2023-05-10T15:19:59;14.00;99.90
4453;DHT22;2239;48.152;11.584;2023-05-10T15:22:25;13.90;99.90
4453;DHT22;2239;48.152;11.584;2023-05-10T15:24:51;13.90;99.90
4453;DHT22;2239;48.152;11.584;2023-05-10T15:27:16;13.80;99.90
4453;DHT22;2239;48.152;11.584;2023-05-10T15:29:42;13.80;99.90
4453;DHT22;2239;48.152;11.584;2023-05-10T15:32:07;13.80;99.90
4453;DHT22;2239;48.152;11.584;2023-05-10T15:34:33;13.70;99.90
4453;DHT22;2239;48.152;11.584;2023-05-10T15:36:58;13.80;99.90
4453;DHT22;2239;48.152;11.584;2023-05-10T15:39:24;13.80;99.90
4453;DHT22;2239;48.152;11.584;2023-05-10T15:41:50;13.70;99.90
4453;DHT22;2239;48.152;11.584;2023-05-10T15:44:16;13.70;99.90
4453;DHT22;2239;48.152;11.584;2023-05-10T15:46:42;13.60;99.90
4453;DHT22;2239;48.152;11.584;2023-05-10T15:49:07;13.60;99.90
4453;DHT22;2239;48.152;11.584;2023-05-10T15:51:33;13.60;99.90
4453;DHT22;2239;48.152;11.584;2023-05-10T15:53:59;13.50;99.90
4453;DHT22;2239;48.152;11.584;2023-05-10T15:56:27;13.50;99.90
4453;DHT22;2239;48.152;11.584;2023-05-10T15:58:52;13.50;99.90
4453;DHT22;2239;48.152;11.584;2023-05-10T16:01:18;13.40;99.90
4453;DHT22;2239;48.152;11.584;2023-05-10T16:03:43;13.40;99.90
4453;DHT22;2239;48.152;11.584;2023-05-10T16:06:09;13.30;99.90
4453;DHT22;2239;48.152;11.584;2023-05-10T16:08:34;13.40;99.90
4453;DHT22;2239;48.152;11.584;2023-05-10T16:11:00;13.30;99.90
4453;DHT22;2239;48.152;11.584;2023-05-10T16:13:26;13.20;99.90
4453;DHT22;2239;48.152;11.584;2023-05-10T16:15:52;13.30;99.90
4453;DHT22;2239;48.152;11.584;2023-05-10T16:18:18;13.30;99.90
4453;DHT22;2239;48.152;11.584;2023-05-10T16:20:43;13.30;99.90
4453;DHT22;2239;48.152;11.584;2023-05-10T16:23:10;13.20;99.90
4453;DHT22;2239;48.152;11.584;2023-05-10T16:25:36;13.20;99.90
4453;DHT22;2239;48.152;11.584;2023-05-10T16:28:01;13.20;99.90
4453;DHT22;2239;48.152;11.584;2023-05-10T16:30:27;13.20;99.90
4453;DHT22;2239;48.152;11.584;2023-05-10T16:32:55;13.20;99.90
4453;DHT22;2239;48.152;11.584;2023-05-10T16:35:21;13.20;99.90
4453;DHT22;2239;48.152;11.584;2023-05-10T16:37:51;13.10;99.90
4453;DHT22;2239;48.152;11.584;2023-05-10T16:40:20;13.10;99.90
4453;DHT22;2239;48.152;11.584;2023-05-10T16:42:48;13.10;99.90
4453;DHT22;2239;48.152;11.584;2023-05-10T16:45:14;13.10;99.90
4453;DHT22;2239;48.152;11.584;2023-05-10T16:47:40;13.10;99.90
4453;DHT22;2239;48.152;11.584;2023-05-10T16:50:07;13.20;99.90
4453;DHT22;2239;48.152;11.584;2023-05-10T16:52:34;13.10;99.90
4453;DHT22;2239;48.152;11.584;2023-05-10T16:55:00;13.00;99.90
4453;DHT22;2239;48.152;11.584;2023-05-10T16:57:26;12.90;99.90
4453;DHT22;2239;48.152;11.584;2023-05-10T16:59:52;12.90;99.90
4453;DHT22;2239;48.152;11.584;2023-05-10T17:02:18;12.90;99.90
4453;DHT22;2239;48.152;11.584;2023-05-10T17:04:44;12.80;99.90
4453;DHT22;2239;48.152;11.584;2023-05-10T17:07:10;12.80;99.90
4453;DHT22;2239;48.152;11.584;2023-05-10T17:09:37;12.70;99.90
4453;DHT22;2239;48.152;11.584;2023-05-10T17:12:03;12.60;99.90
4453;DHT22;2239;48.152;11.584;2023-05-10T17:14:29;12.60;99.90
4453;DHT22;2239;48.152;11.584;2023-05-10T17:16:54;12.50;99.90
4453;DHT22;2239;48.152;11.584;2023-05-10T17:19:20;12.40;99.90
4453;DHT22;2239;48.152;11.584;2023-05-10T17:21:46;12.30;99.90
4453;DHT22;2239;48.152;11.584;2023-05-10T17:24:12;12.20;99.90
4453;DHT22;2239;48.152;11.584;2023-05-10T17:26:37;12.20;99.90
4453;DHT22;2239;48.152;11.584;2023-05-10T17:29:03;12.10;99.90
4453;DHT22;2239;48.152;11.584;2023-05-10T17:31:28;12.10;99.90
4453;DHT22;2239;48.152;11.584;2023-05-10T17:33:54;12.10;99.90
4453;DHT22;2239;48.152;11.584;2023-05-10T17:36:20;12.10;99.90
4453;DHT22;2239;48.152;11.584;2023-05-10T17:38:46;12.10;99.90
4453;DHT22;2239;48.152;11.584;2023-05-10T17:41:13;12.20;99.90
4453;DHT22;2239;48.152;11.584;2023-05-10T17:43:38;12.10;99.90
4453;DHT22;2239;48.152;11.584;2023-05-10T17:46:04;12.10;99.90
4453;DHT22;2239;48.152;11.584;2023-05-10T17:48:30;12.10;99.90
4453;DHT22;2239;48.152;11.584;2023-05-10T17:50:55;12.10;99.90
4453;DHT22;2239;48.152;11.584;2023-05-10T17:53:21;12.10;99.90
4453;DHT22;2239;48.152;11.584;2023-05-10T17:55:46;12.10;99.90
4453;DHT22;2239;48.152;11.584;2023-05-10T17:58:12;12.00;99.90
4453;DHT22;2239;48.152;11.584;2023-05-10T18:00:38;11.90;99.90
4453;DHT22;2239;48.152;11.584;2023-05-10T18:03:06;11.90;99.90
4453;DHT22;2239;48.152;11.584;2023-05-10T18:05:36;11.90;99.90
4453;DHT22;2239;48.152;11.584;2023-05-10T18:08:02;11.90;99.90
4453;DHT22;2239;48.152;11.584;2023-05-10T18:10:28;11.90;99.90
4453;DHT22;2239;48.152;11.584;2023-05-10T18:12:53;11.80;99.90
4453;DHT22;2239;48.152;11.584;2023-05-10T18:15:19;11.70;99.90
4453;DHT22;2239;48.152;11.584;2023-05-10T18:17:45;11.70;99.90
4453;DHT22;2239;48.152;11.584;2023-05-10T18:20:10;11.70;99.90
4453;DHT22;2239;48.152;11.584;2023-05-10T18:22:37;11.60;99.90
4453;DHT22;2239;48.152;11.584;2023-05-10T18:25:03;11.60;99.90
4453;DHT22;2239;48.152;11.584;2023-05-10T18:27:29;11.60;99.90
4453;DHT22;2239;48.152;11.584;2023-05-10T18:29:54;11.60;99.90
4453;DHT22;2239;48.152;11.584;2023-05-10T18:32:21;11.60;99.90
4453;DHT22;2239;48.152;11.584;2023-05-10T18:34:47;11.60;99.90
4453;DHT22;2239;48.152;11.584;2023-05-10T18:37:12;11.60;99.90
4453;DHT22;2239;48.152;11.584;2023-05-10T18:39:38;11.60;99.90
4453;DHT22;2239;48.152;11.584;2023-05-10T18:42:04;11.60;99.90
4453;DHT22;2239;48.152;11.584;2023-05-10T18:44:30;11.60;99.90
4453;DHT22;2239;48.152;11.584;2023-05-10T18:46:56;11.50;99.90
4453;DHT22;2239;48.152;11.584;2023-05-10T18:49:23;11.50;99.90
4453;DHT22;2239;48.152;11.584;2023-05-10T18:51:49;11.60;99.90
4453;DHT22;2239;48.152;11.584;2023-05-10T18:54:15;11.50;99.90
4453;DHT22;2239;48.152;11.584;2023-05-10T18:56:41;11.40;99.90
4453;DHT22;2239;48.152;11.584;2023-05-10T18:59:10;11.40;99.90
4453;DHT22;2239;48.152;11.584;2023-05-10T19:01:35;11.40;99.90
4453;DHT22;2239;48.152;11.584;2023-05-10T19:04:01;11.40;99.90
4453;DHT22;2239;48.152;11.584;2023-05-10T19:06:26;11.40;99.90
4453;DHT22;2239;48.152;11.584;2023-05-10T19:08:52;11.30;99.90
4453;DHT22;2239;48.152;11.584;2023-05-10T19:11:18;11.40;99.90
4453;DHT22;2239;48.152;11.584;2023-05-10T19:13:44;11.40;99.90
4453;DHT22;2239;48.152;11.584;2023-05-10T19:16:15;11.40;99.90
4453;DHT22;2239;48.152;11.584;2023-05-10T19:18:41;11.40;99.90
4453;DHT22;2239;48.152;11.584;2023-05-10T19:21:08;11.40;99.90
4453;DHT22;2239;48.152;11.584;2023-05-10T19:23:36;11.30;99.90
4453;DHT22;2239;48.152;11.584;2023-05-10T19:26:02;11.30;99.90
4453;DHT22;2239;48.152;11.584;2023-05-10T19:28:28;11.30;99.90
4453;DHT22;2239;48.152;11.584;2023-05-10T19:30:54;11.30;99.90
4453;DHT22;2239;48.152;11.584;2023-05-10T19:33:19;11.30;99.90
4453;DHT22;2239;48.152;11.584;2023-05-10T19:35:45;11.20;99.90
4453;DHT22;2239;48.152;11.584;2023-05-10T19:38:10;11.20;99.90
4453;DHT22;2239;48.152;11.584;2023-05-10T19:40:36;11.10;99.90
4453;DHT22;2239;48.152;11.584;2023-05-10T19:43:02;11.10;99.90
4453;DHT22;2239;48.152;11.584;2023-05-10T19:45:28;11.00;99.90
4453;DHT22;2239;48.152;11.584;2023-05-10T19:47:54;11.00;99.90
4453;DHT22;2239;48.152;11.584;2023-05-10T19:50:19;11.00;99.90
4453;DHT22;2239;48.152;11.584;2023-05-10T19:52:45;11.00;99.90
4453;DHT22;2239;48.152;11.584;2023-05-10T19:55:14;11.00;99.90
4453;DHT22;2239;48.152;11.584;2023-05-10T19:57:49;11.00;99.90
4453;DHT22;2239;48.152;11.584;2023-05-10T20:00:14;11.00;99.90
4453;DHT22;2239;48.152;11.584;2023-05-10T20:02:40;11.00;99.90
4453;DHT22;2239;48.152;11.584;2023-05-10T20:05:06;11.00;99.90
4453;DHT22;2239;48.152;11.584;2023-05-10T20:07:32;10.90;99.90
4453;DHT22;2239;48.152;11.584;2023-05-10T20:09:57;10.90;99.90
4453;DHT22;2239;48.152;11.584;2023-05-10T20:12:23;10.90;99.90
4453;DHT22;2239;48.152;11.584;2023-05-10T20:14:48;10.90;99.90
4453;DHT22;2239;48.152;11.584;2023-05-10T20:17:14;10.90;99.90
4453;DHT22;2239;48.152;11.584;2023-05-10T20:19:39;10.90;99.90
4453;DHT22;2239;48.152;11.584;2023-05-10T20:22:05;10.90;99.90
4453;DHT22;2239;48.152;11.584;2023-05-10T20:24:33;10.80;99.90
4453;DHT22;2239;48.152;11.584;2023-05-10T20:26:59;10.80;99.90
4453;DHT22;2239;48.152;11.584;2023-05-10T20:29:25;10.80;99.90
4453;DHT22;2239;48.152;11.584;2023-05-10T20:31:50;10.80;99.90
4453;DHT22;2239;48.152;11.584;2023-05-10T20:34:16;10.80;99.90
4453;DHT22;2239;48.152;11.584;2023-05-10T20:36:42;10.80;99.90
4453;DHT22;2239;48.152;11.584;2023-05-10T20:39:07;10.70;99.90
4453;DHT22;2239;48.152;11.584;2023-05-10T20:41:33;10.80;99.90
4453;DHT22;2239;48.152;11.584;2023-05-10T20:43:59;10.80;99.90
4453;DHT22;2239;48.152;11.584;2023-05-10T20:46:25;10.80;99.90
4453;DHT22;2239;48.152;11.584;2023-05-10T20:48:51;10.90;99.90
4453;DHT22;2239;48.152;11.584;2023-05-10T20:51:17;10.90;99.90
4453;DHT22;2239;48.152;11.584;2023-05-10T20:53:43;10.90;99.90
4453;DHT22;2239;48.152;11.584;2023-05-10T20:56:08;10.90;99.90
4453;DHT22;2239;48.152;11.584;2023-05-10T20:58:34;10.90;99.90
4453;DHT22;2239;48.152;11.584;2023-05-10T21:01:00;10.90;99.90
4453;DHT22;2239;48.152;11.584;2023-05-10T21:03:26;10.90;99.90
4453;DHT22;2239;48.152;11.584;2023-05-10T21:05:52;10.90;99.90
4453;DHT22;2239;48.152;11.584;2023-05-10T21:08:18;10.90;99.90
4453;DHT22;2239;48.152;11.584;2023-05-10T21:10:43;10.90;99.90
4453;DHT22;2239;48.152;11.584;2023-05-10T21:13:09;10.90;99.90
4453;DHT22;2239;48.152;11.584;2023-05-10T21:15:34;10.90;99.90
4453;DHT22;2239;48.152;11.584;2023-05-10T21:18:00;10.80;99.90
4453;DHT22;2239;48.152;11.584;2023-05-10T21:20:26;10.70;99.90
4453;DHT22;2239;48.152;11.584;2023-05-10T21:22:51;10.70;99.90
4453;DHT22;2239;48.152;11.584;2023-05-10T21:25:17;10.80;99.90
4453;DHT22;2239;48.152;11.584;2023-05-10T21:27:43;10.80;99.90
4453;DHT22;2239;48.152;11.584;2023-05-10T21:30:09;10.70;99.90
4453;DHT22;2239;48.152;11.584;2023-05-10T21:32:34;10.70;99.90
4453;DHT22;2239;48.152;11.584;2023-05-10T21:35:01;10.60;99.90
4453;DHT22;2239;48.152;11.584;2023-05-10T21:37:27;10.40;99.90
4453;DHT22;2239;48.152;11.584;2023-05-10T21:39:52;10.40;99.90
4453;DHT22;2239;48.152;11.584;2023-05-10T21:42:18;10.30;99.90
4453;DHT22;2239;48.152;11.584;2023-05-10T21:44:44;10.30;99.90
4453;DHT22;2239;48.152;11.584;2023-05-10T21:47:10;10.30;99.90
4453;DHT22;2239;48.152;11.584;2023-05-10T21:49:35;10.20;99.90
4453;DHT22;2239;48.152;11.584;2023-05-10T21:52:01;10.30;99.90
4453;DHT22;2239;48.152;11.584;2023-05-10T21:54:26;10.30;99.90
4453;DHT22;2239;48.152;11.584;2023-05-10T21:56:52;10.30;99.90
4453;DHT22;2239;48.152;11.584;2023-05-10T21:59:18;10.30;99.90
4453;DHT22;2239;48.152;11.584;2023-05-10T22:01:45;10.30;99.90
4453;DHT22;2239;48.152;11.584;2023-05-10T22:04:11;10.20;99.90
4453;DHT22;2239;48.152;11.584;2023-05-10T22:06:36;10.20;99.90
4453;DHT22;2239;48.152;11.584;2023-05-10T22:09:02;10.20;99.90
4453;DHT22;2239;48.152;11.584;2023-05-10T22:11:28;10.20;99.90
4453;DHT22;2239;48.152;11.584;2023-05-10T22:13:54;10.10;99.90
4453;DHT22;2239;48.152;11.584;2023-05-10T22:16:20;10.10;99.90
4453;DHT22;2239;48.152;11.584;2023-05-10T22:18:45;10.10;99.90
4453;DHT22;2239;48.152;11.584;2023-05-10T22:21:11;10.10;99.90
4453;DHT22;2239;48.152;11.584;2023-05-10T22:23:36;10.10;99.90
4453;DHT22;2239;48.152;11.584;2023-05-10T22:26:02;10.00;99.90
4453;DHT22;2239;48.152;11.584;2023-05-10T22:28:28;10.00;99.90
4453;DHT22;2239;48.152;11.584;2023-05-10T22:30:54;9.90;99.90
4453;DHT22;2239;48.152;11.584;2023-05-10T22:33:20;9.90;99.90
4453;DHT22;2239;48.152;11.584;2023-05-10T22:35:46;9.90;99.90
4453;DHT22;2239;48.152;11.584;2023-05-10T22:38:11;9.90;99.90
4453;DHT22;2239;48.152;11.584;2023-05-10T22:40:37;9.90;99.90
4453;DHT22;2239;48.152;11.584;2023-05-10T22:43:03;9.90;99.90
4453;DHT22;2239;48.152;11.584;2023-05-10T22:45:29;9.90;99.90
4453;DHT22;2239;48.152;11.584;2023-05-10T22:47:54;9.90;99.90
4453;DHT22;2239;48.152;11.584;2023-05-10T22:50:20;9.90;99.90
4453;DHT22;2239;48.152;11.584;2023-05-10T22:52:45;9.80;99.90
4453;DHT22;2239;48.152;11.584;2023-05-10T22:55:11;9.80;99.90
4453;DHT22;2239;48.152;11.584;2023-05-10T22:57:36;9.80;99.90
4453;DHT22;2239;48.152;11.584;2023-05-10T23:00:03;9.80;99.90
4453;DHT22;2239;48.152;11.584;2023-05-10T23:02:30;9.80;99.90
4453;DHT22;2239;48.152;11.584;2023-05-10T23:04:56;9.90;99.90
4453;DHT22;2239;48.152;11.584;2023-05-10T23:07:21;9.90;99.90
4453;DHT22;2239;48.152;11.584;2023-05-10T23:09:48;9.90;99.90
4453;DHT22;2239;48.152;11.584;2023-05-10T23:12:13;9.70;99.90
4453;DHT22;2239;48.152;11.584;2023-05-10T23:14:39;9.70;99.90
4453;DHT22;2239;48.152;11.584;2023-05-10T23:17:06;9.70;99.90
4453;DHT22;2239;48.152;11.584;2023-05-10T23:19:32;9.70;99.90
4453;DHT22;2239;48.152;11.584;2023-05-10T23:21:57;9.70;99.90
4453;DHT22;2239;48.152;11.584;2023-05-10T23:24:24;9.70;99.90
4453;DHT22;2239;48.152;11.584;2023-05-10T23:26:49;9.70;99.90
4453;DHT22;2239;48.152;11.584;2023-05-10T23:29:15;9.60;99.90
4453;DHT22;2239;48.152;11.584;2023-05-10T23:31:41;9.60;99.90
4453;DHT22;2239;48.152;11.584;2023-05-10T23:34:12;9.60;99.90
4453;DHT22;2239;48.152;11.584;2023-05-10T23:36:38;9.60;99.90
4453;DHT22;2239;48.152;11.584;2023-05-10T23:39:03;9.50;99.90
4453;DHT22;2239;48.152;11.584;2023-05-10T23:41:29;9.50;99.90
4453;DHT22;2239;48.152;11.584;2023-05-10T23:43:55;9.50;99.90
4453;DHT22;2239;48.152;11.584;2023-05-10T23:46:21;9.50;99.90
4453;DHT22;2239;48.152;11.584;2023-05-10T23:48:47;9.50;99.90
4453;DHT22;2239;48.152;11.584;2023-05-10T23:51:12;9.60;99.90
4453;DHT22;2239;48.152;11.584;2023-05-10T23:53:38;9.60;99.90
4453;DHT22;2239;48.152;11.584;2023-05-10T23:56:04;9.50;99.90
4453;DHT22;2239;48.152;11.584;2023-05-10T23:58:29;9.60;99.90
